sensor_id;sensor_type;location;lat;lon;timestamp;P1;durP1;ratioP1;P2;durP2;ratioP2
69937;SDS011;57248;47.320;15.998;2024-03-02T00:00:56;20.33;;;5.38;;
69937;SDS011;57248;47.320;15.998;2024-03-02T00:03:28;19.40;;;6.43;;
69937;SDS011;57248;47.320;15.998;2024-03-02T00:06:00;19.83;;;5.70;;
69937;SDS011;57248;47.320;15.998;2024-03-02T00:08:32;14.70;;;5.53;;
69937;SDS011;57248;47.320;15.998;2024-03-02T00:11:04;19.85;;;7.38;;
69937;SDS011;57248;47.320;15.998;2024-03-02T00:13:36;17.63;;;6.45;;
69937;SDS011;57248;47.320;15.998;2024-03-02T00:16:02;15.50;;;5.53;;
69937;SDS011;57248;47.320;15.998;2024-03-02T00:18:37;12.82;;;5.43;;
69937;SDS011;57248;47.320;15.998;2024-03-02T00:21:09;17.70;;;5.60;;
69937;SDS011;57248;47.320;15.998;2024-03-02T00:23:42;12.52;;;4.43;;
69937;SDS011;57248;47.320;15.998;2024-03-02T00:26:14;18.33;;;4.78;;
69937;SDS011;57248;47.320;15.998;2024-03-02T00:28:48;21.10;;;7.23;;
69937;SDS011;57248;47.320;15.998;2024-03-02T00:31:22;25.17;;;6.43;;
69937;SDS011;57248;47.320;15.998;2024-03-02T00:33:54;18.45;;;6.07;;
69937;SDS011;57248;47.320;15.998;2024-03-02T00:36:26;18.40;;;6.13;;
69937;SDS011;57248;47.320;15.998;2024-03-02T00:38:59;13.60;;;4.63;;
69937;SDS011;57248;47.320;15.998;2024-03-02T00:41:31;19.23;;;5.40;;
69937;SDS011;57248;47.320;15.998;2024-03-02T00:44:05;14.85;;;5.45;;
69937;SDS011;57248;47.320;15.998;2024-03-02T00:46:35;17.05;;;5.82;;
69937;SDS011;57248;47.320;15.998;2024-03-02T00:49:12;13.85;;;4.50;;
69937;SDS011;57248;47.320;15.998;2024-03-02T00:51:54;17.38;;;5.55;;
69937;SDS011;57248;47.320;15.998;2024-03-02T00:54:35;19.93;;;6.00;;
69937;SDS011;57248;47.320;15.998;2024-03-02T00:57:23;12.10;;;5.00;;
69937;SDS011;57248;47.320;15.998;2024-03-02T00:59:57;12.13;;;5.53;;
69937;SDS011;57248;47.320;15.998;2024-03-02T01:02:29;18.02;;;5.78;;
69937;SDS011;57248;47.320;15.998;2024-03-02T01:05:01;14.88;;;6.07;;
69937;SDS011;57248;47.320;15.998;2024-03-02T01:07:26;12.30;;;4.70;;
69937;SDS011;57248;47.320;15.998;2024-03-02T01:09:59;11.55;;;5.10;;
69937;SDS011;57248;47.320;15.998;2024-03-02T01:12:31;19.77;;;5.72;;
69937;SDS011;57248;47.320;15.998;2024-03-02T01:15:17;14.63;;;4.50;;
69937;SDS011;57248;47.320;15.998;2024-03-02T01:17:49;18.95;;;4.70;;
69937;SDS011;57248;47.320;15.998;2024-03-02T01:20:21;16.90;;;5.75;;
69937;SDS011;57248;47.320;15.998;2024-03-02T01:22:53;12.52;;;5.15;;
69937;SDS011;57248;47.320;15.998;2024-03-02T01:25:25;18.50;;;5.30;;
69937;SDS011;57248;47.320;15.998;2024-03-02T01:27:50;14.20;;;5.63;;
69937;SDS011;57248;47.320;15.998;2024-03-02T01:30:23;16.95;;;4.38;;
69937;SDS011;57248;47.320;15.998;2024-03-02T01:32:55;12.38;;;5.47;;
69937;SDS011;57248;47.320;15.998;2024-03-02T01:35:30;13.80;;;4.67;;
69937;SDS011;57248;47.320;15.998;2024-03-02T01:38:09;15.82;;;5.65;;
69937;SDS011;57248;47.320;15.998;2024-03-02T01:40:41;16.55;;;4.65;;
69937;SDS011;57248;47.320;15.998;2024-03-02T01:43:16;16.98;;;5.97;;
69937;SDS011;57248;47.320;15.998;2024-03-02T01:45:48;16.13;;;5.47;;
69937;SDS011;57248;47.320;15.998;2024-03-02T01:48:13;10.93;;;4.00;;
69937;SDS011;57248;47.320;15.998;2024-03-02T01:50:45;11.10;;;4.88;;
69937;SDS011;57248;47.320;15.998;2024-03-02T01:53:18;13.65;;;4.70;;
69937;SDS011;57248;47.320;15.998;2024-03-02T01:55:51;12.87;;;4.13;;
69937;SDS011;57248;47.320;15.998;2024-03-02T01:58:23;13.23;;;4.95;;
69937;SDS011;57248;47.320;15.998;2024-03-02T02:00:55;12.07;;;4.90;;
69937;SDS011;57248;47.320;15.998;2024-03-02T02:03:27;13.20;;;4.20;;
69937;SDS011;57248;47.320;15.998;2024-03-02T02:05:59;13.30;;;4.18;;
69937;SDS011;57248;47.320;15.998;2024-03-02T02:08:31;14.47;;;4.83;;
69937;SDS011;57248;47.320;15.998;2024-03-02T02:10:57;10.50;;;5.05;;
69937;SDS011;57248;47.320;15.998;2024-03-02T02:13:29;13.10;;;5.35;;
69937;SDS011;57248;47.320;15.998;2024-03-02T02:16:08;17.37;;;4.97;;
69937;SDS011;57248;47.320;15.998;2024-03-02T02:18:40;12.23;;;4.97;;
69937;SDS011;57248;47.320;15.998;2024-03-02T02:21:12;13.85;;;5.47;;
69937;SDS011;57248;47.320;15.998;2024-03-02T02:23:44;16.85;;;5.75;;
69937;SDS011;57248;47.320;15.998;2024-03-02T02:26:20;22.98;;;5.18;;
69937;SDS011;57248;47.320;15.998;2024-03-02T02:28:53;11.70;;;5.37;;
69937;SDS011;57248;47.320;15.998;2024-03-02T02:31:25;15.48;;;5.30;;
69937;SDS011;57248;47.320;15.998;2024-03-02T02:33:57;9.98;;;3.70;;
69937;SDS011;57248;47.320;15.998;2024-03-02T02:36:22;20.33;;;5.70;;
69937;SDS011;57248;47.320;15.998;2024-03-02T02:38:54;23.67;;;5.70;;
69937;SDS011;57248;47.320;15.998;2024-03-02T02:41:27;15.73;;;4.25;;
69937;SDS011;57248;47.320;15.998;2024-03-02T02:43:59;17.48;;;6.00;;
69937;SDS011;57248;47.320;15.998;2024-03-02T02:46:24;15.70;;;5.97;;
69937;SDS011;57248;47.320;15.998;2024-03-02T02:48:57;16.33;;;5.72;;
69937;SDS011;57248;47.320;15.998;2024-03-02T02:51:29;11.63;;;4.57;;
69937;SDS011;57248;47.320;15.998;2024-03-02T02:54:01;14.87;;;5.50;;
69937;SDS011;57248;47.320;15.998;2024-03-02T02:56:33;17.98;;;4.70;;
69937;SDS011;57248;47.320;15.998;2024-03-02T02:59:05;9.60;;;3.83;;
69937;SDS011;57248;47.320;15.998;2024-03-02T03:01:37;11.88;;;3.88;;
69937;SDS011;57248;47.320;15.998;2024-03-02T03:04:09;12.95;;;3.97;;
69937;SDS011;57248;47.320;15.998;2024-03-02T03:06:41;8.20;;;4.17;;
69937;SDS011;57248;47.320;15.998;2024-03-02T03:09:06;11.35;;;4.47;;
69937;SDS011;57248;47.320;15.998;2024-03-02T03:11:38;8.02;;;2.92;;
69937;SDS011;57248;47.320;15.998;2024-03-02T03:14:10;8.00;;;3.57;;
69937;SDS011;57248;47.320;15.998;2024-03-02T03:16:35;8.27;;;3.55;;
69937;SDS011;57248;47.320;15.998;2024-03-02T03:19:07;11.90;;;2.67;;
69937;SDS011;57248;47.320;15.998;2024-03-02T03:21:39;12.15;;;4.57;;
69937;SDS011;57248;47.320;15.998;2024-03-02T03:24:11;9.10;;;3.92;;
69937;SDS011;57248;47.320;15.998;2024-03-02T03:26:36;10.23;;;4.03;;
69937;SDS011;57248;47.320;15.998;2024-03-02T03:29:09;11.73;;;4.50;;
69937;SDS011;57248;47.320;15.998;2024-03-02T03:31:41;6.60;;;2.15;;
69937;SDS011;57248;47.320;15.998;2024-03-02T03:34:13;10.63;;;4.03;;
69937;SDS011;57248;47.320;15.998;2024-03-02T03:36:47;16.20;;;5.15;;
69937;SDS011;57248;47.320;15.998;2024-03-02T03:39:12;18.40;;;5.00;;
69937;SDS011;57248;47.320;15.998;2024-03-02T03:41:45;20.77;;;5.35;;
69937;SDS011;57248;47.320;15.998;2024-03-02T03:44:17;12.70;;;4.37;;
69937;SDS011;57248;47.320;15.998;2024-03-02T03:46:42;12.15;;;4.70;;
69937;SDS011;57248;47.320;15.998;2024-03-02T03:49:15;12.38;;;4.68;;
69937;SDS011;57248;47.320;15.998;2024-03-02T03:51:47;9.40;;;4.17;;
69937;SDS011;57248;47.320;15.998;2024-03-02T03:54:19;17.58;;;4.95;;
69937;SDS011;57248;47.320;15.998;2024-03-02T03:56:51;13.95;;;3.88;;
69937;SDS011;57248;47.320;15.998;2024-03-02T03:59:23;23.13;;;4.28;;
69937;SDS011;57248;47.320;15.998;2024-03-02T04:01:55;8.88;;;4.15;;
69937;SDS011;57248;47.320;15.998;2024-03-02T04:04:28;7.70;;;3.20;;
69937;SDS011;57248;47.320;15.998;2024-03-02T04:07:00;8.73;;;3.92;;
69937;SDS011;57248;47.320;15.998;2024-03-02T04:09:26;9.65;;;3.33;;
69937;SDS011;57248;47.320;15.998;2024-03-02T04:12:06;12.20;;;3.47;;
69937;SDS011;57248;47.320;15.998;2024-03-02T04:14:38;7.82;;;3.08;;
69937;SDS011;57248;47.320;15.998;2024-03-02T04:17:10;12.13;;;3.57;;
69937;SDS011;57248;47.320;15.998;2024-03-02T04:19:43;14.02;;;4.63;;
69937;SDS011;57248;47.320;15.998;2024-03-02T04:22:16;11.85;;;3.92;;
69937;SDS011;57248;47.320;15.998;2024-03-02T04:24:41;13.70;;;4.57;;
69937;SDS011;57248;47.320;15.998;2024-03-02T04:27:13;11.48;;;4.70;;
69937;SDS011;57248;47.320;15.998;2024-03-02T04:29:38;11.40;;;3.70;;
69937;SDS011;57248;47.320;15.998;2024-03-02T04:32:10;14.05;;;3.40;;
69937;SDS011;57248;47.320;15.998;2024-03-02T04:34:42;15.85;;;4.47;;
69937;SDS011;57248;47.320;15.998;2024-03-02T04:37:14;15.20;;;4.18;;
69937;SDS011;57248;47.320;15.998;2024-03-02T04:39:46;9.93;;;3.70;;
69937;SDS011;57248;47.320;15.998;2024-03-02T04:42:18;12.82;;;4.10;;
69937;SDS011;57248;47.320;15.998;2024-03-02T04:44:50;15.95;;;4.00;;
69937;SDS011;57248;47.320;15.998;2024-03-02T04:47:22;12.33;;;4.13;;
69937;SDS011;57248;47.320;15.998;2024-03-02T04:49:54;11.35;;;3.47;;
69937;SDS011;57248;47.320;15.998;2024-03-02T04:52:26;13.77;;;3.97;;
69937;SDS011;57248;47.320;15.998;2024-03-02T04:54:58;14.02;;;5.13;;
69937;SDS011;57248;47.320;15.998;2024-03-02T04:57:51;10.25;;;4.15;;
69937;SDS011;57248;47.320;15.998;2024-03-02T05:00:19;12.87;;;3.10;;
69937;SDS011;57248;47.320;15.998;2024-03-02T05:02:52;9.15;;;2.92;;
69937;SDS011;57248;47.320;15.998;2024-03-02T05:05:24;10.82;;;3.58;;
69937;SDS011;57248;47.320;15.998;2024-03-02T05:07:56;10.30;;;4.07;;
69937;SDS011;57248;47.320;15.998;2024-03-02T05:10:28;10.82;;;3.20;;
69937;SDS011;57248;47.320;15.998;2024-03-02T05:13:15;9.37;;;3.00;;
69937;SDS011;57248;47.320;15.998;2024-03-02T05:15:49;13.05;;;4.10;;
69937;SDS011;57248;47.320;15.998;2024-03-02T05:18:14;9.60;;;3.53;;
69937;SDS011;57248;47.320;15.998;2024-03-02T05:20:47;10.83;;;3.23;;
69937;SDS011;57248;47.320;15.998;2024-03-02T05:23:19;6.95;;;3.33;;
69937;SDS011;57248;47.320;15.998;2024-03-02T05:25:44;7.83;;;2.97;;
69937;SDS011;57248;47.320;15.998;2024-03-02T05:28:17;10.57;;;2.90;;
69937;SDS011;57248;47.320;15.998;2024-03-02T05:30:49;8.98;;;3.58;;
69937;SDS011;57248;47.320;15.998;2024-03-02T05:33:14;8.67;;;2.70;;
69937;SDS011;57248;47.320;15.998;2024-03-02T05:35:47;7.75;;;3.53;;
69937;SDS011;57248;47.320;15.998;2024-03-02T05:38:12;7.70;;;3.60;;
69937;SDS011;57248;47.320;15.998;2024-03-02T05:40:44;8.43;;;2.78;;
69937;SDS011;57248;47.320;15.998;2024-03-02T05:43:16;6.93;;;3.63;;
69937;SDS011;57248;47.320;15.998;2024-03-02T05:45:48;8.20;;;2.75;;
69937;SDS011;57248;47.320;15.998;2024-03-02T05:48:21;7.38;;;2.38;;
69937;SDS011;57248;47.320;15.998;2024-03-02T05:50:54;8.57;;;3.53;;
69937;SDS011;57248;47.320;15.998;2024-03-02T05:53:26;5.45;;;2.10;;
69937;SDS011;57248;47.320;15.998;2024-03-02T05:55:58;10.50;;;4.13;;
69937;SDS011;57248;47.320;15.998;2024-03-02T05:58:30;7.00;;;2.90;;
69937;SDS011;57248;47.320;15.998;2024-03-02T06:01:22;6.03;;;2.13;;
69937;SDS011;57248;47.320;15.998;2024-03-02T06:04:00;7.87;;;3.40;;
69937;SDS011;57248;47.320;15.998;2024-03-02T06:06:32;7.47;;;1.52;;
69937;SDS011;57248;47.320;15.998;2024-03-02T06:09:05;7.68;;;2.15;;
69937;SDS011;57248;47.320;15.998;2024-03-02T06:11:39;5.60;;;2.25;;
69937;SDS011;57248;47.320;15.998;2024-03-02T06:14:26;7.63;;;3.17;;
69937;SDS011;57248;47.320;15.998;2024-03-02T06:16:58;12.00;;;3.37;;
69937;SDS011;57248;47.320;15.998;2024-03-02T06:19:31;7.78;;;4.07;;
69937;SDS011;57248;47.320;15.998;2024-03-02T06:22:03;9.60;;;3.83;;
69937;SDS011;57248;47.320;15.998;2024-03-02T06:24:35;9.70;;;2.53;;
69937;SDS011;57248;47.320;15.998;2024-03-02T06:27:09;7.90;;;2.45;;
69937;SDS011;57248;47.320;15.998;2024-03-02T06:29:41;7.00;;;2.37;;
69937;SDS011;57248;47.320;15.998;2024-03-02T06:32:13;12.48;;;3.53;;
69937;SDS011;57248;47.320;15.998;2024-03-02T06:34:45;8.13;;;2.47;;
69937;SDS011;57248;47.320;15.998;2024-03-02T06:37:10;7.40;;;2.10;;
69937;SDS011;57248;47.320;15.998;2024-03-02T06:39:43;6.80;;;2.60;;
69937;SDS011;57248;47.320;15.998;2024-03-02T06:42:15;5.15;;;2.30;;
69937;SDS011;57248;47.320;15.998;2024-03-02T06:44:47;6.65;;;2.25;;
69937;SDS011;57248;47.320;15.998;2024-03-02T06:47:20;6.45;;;1.95;;
69937;SDS011;57248;47.320;15.998;2024-03-02T06:49:52;9.53;;;2.97;;
69937;SDS011;57248;47.320;15.998;2024-03-02T06:52:25;6.78;;;2.88;;
69937;SDS011;57248;47.320;15.998;2024-03-02T06:54:57;8.10;;;2.30;;
69937;SDS011;57248;47.320;15.998;2024-03-02T06:57:29;7.13;;;2.95;;
69937;SDS011;57248;47.320;15.998;2024-03-02T07:00:02;6.78;;;2.67;;
69937;SDS011;57248;47.320;15.998;2024-03-02T07:02:37;8.10;;;2.87;;
69937;SDS011;57248;47.320;15.998;2024-03-02T07:05:03;7.00;;;2.38;;
69937;SDS011;57248;47.320;15.998;2024-03-02T07:07:36;6.70;;;1.95;;
69937;SDS011;57248;47.320;15.998;2024-03-02T07:10:08;7.90;;;2.53;;
69937;SDS011;57248;47.320;15.998;2024-03-02T07:12:40;8.43;;;3.05;;
69937;SDS011;57248;47.320;15.998;2024-03-02T07:15:20;8.10;;;2.30;;
69937;SDS011;57248;47.320;15.998;2024-03-02T07:18:00;6.20;;;1.88;;
69937;SDS011;57248;47.320;15.998;2024-03-02T07:20:26;6.55;;;2.65;;
69937;SDS011;57248;47.320;15.998;2024-03-02T07:22:58;7.73;;;3.17;;
69937;SDS011;57248;47.320;15.998;2024-03-02T07:25:30;6.05;;;2.20;;
69937;SDS011;57248;47.320;15.998;2024-03-02T07:28:02;7.95;;;3.15;;
69937;SDS011;57248;47.320;15.998;2024-03-02T07:30:36;5.65;;;2.03;;
69937;SDS011;57248;47.320;15.998;2024-03-02T07:33:10;5.57;;;1.67;;
69937;SDS011;57248;47.320;15.998;2024-03-02T07:35:42;6.50;;;2.40;;
69937;SDS011;57248;47.320;15.998;2024-03-02T07:38:22;7.03;;;2.25;;
69937;SDS011;57248;47.320;15.998;2024-03-02T07:40:57;6.50;;;2.10;;
69937;SDS011;57248;47.320;15.998;2024-03-02T07:43:29;6.88;;;2.85;;
69937;SDS011;57248;47.320;15.998;2024-03-02T07:45:58;5.25;;;2.17;;
69937;SDS011;57248;47.320;15.998;2024-03-02T07:48:34;6.80;;;2.60;;
69937;SDS011;57248;47.320;15.998;2024-03-02T07:51:06;7.18;;;2.78;;
69937;SDS011;57248;47.320;15.998;2024-03-02T07:53:38;7.45;;;2.30;;
69937;SDS011;57248;47.320;15.998;2024-03-02T07:56:10;6.93;;;3.00;;
69937;SDS011;57248;47.320;15.998;2024-03-02T07:58:42;8.30;;;3.35;;
69937;SDS011;57248;47.320;15.998;2024-03-02T08:01:14;6.93;;;2.83;;
69937;SDS011;57248;47.320;15.998;2024-03-02T08:03:47;7.75;;;2.50;;
69937;SDS011;57248;47.320;15.998;2024-03-02T08:06:22;6.95;;;2.40;;
69937;SDS011;57248;47.320;15.998;2024-03-02T08:08:54;7.47;;;3.22;;
69937;SDS011;57248;47.320;15.998;2024-03-02T08:11:23;11.82;;;2.90;;
69937;SDS011;57248;47.320;15.998;2024-03-02T08:13:56;7.17;;;1.90;;
69937;SDS011;57248;47.320;15.998;2024-03-02T08:16:35;6.65;;;2.75;;
69937;SDS011;57248;47.320;15.998;2024-03-02T08:19:07;6.40;;;2.53;;
69937;SDS011;57248;47.320;15.998;2024-03-02T08:21:34;7.25;;;3.33;;
69937;SDS011;57248;47.320;15.998;2024-03-02T08:24:07;6.22;;;2.53;;
69937;SDS011;57248;47.320;15.998;2024-03-02T08:26:39;7.80;;;2.63;;
69937;SDS011;57248;47.320;15.998;2024-03-02T08:29:06;8.73;;;2.55;;
69937;SDS011;57248;47.320;15.998;2024-03-02T08:31:38;7.93;;;3.42;;
69937;SDS011;57248;47.320;15.998;2024-03-02T08:34:11;7.15;;;2.97;;
69937;SDS011;57248;47.320;15.998;2024-03-02T08:36:43;5.50;;;1.95;;
69937;SDS011;57248;47.320;15.998;2024-03-02T08:39:08;9.07;;;2.13;;
69937;SDS011;57248;47.320;15.998;2024-03-02T08:41:47;7.25;;;2.53;;
69937;SDS011;57248;47.320;15.998;2024-03-02T08:44:19;5.53;;;2.13;;
69937;SDS011;57248;47.320;15.998;2024-03-02T08:46:52;10.70;;;2.80;;
69937;SDS011;57248;47.320;15.998;2024-03-02T08:49:24;8.57;;;2.87;;
69937;SDS011;57248;47.320;15.998;2024-03-02T08:51:56;6.30;;;2.53;;
69937;SDS011;57248;47.320;15.998;2024-03-02T08:54:28;6.93;;;2.90;;
69937;SDS011;57248;47.320;15.998;2024-03-02T08:57:07;10.65;;;3.40;;
69937;SDS011;57248;47.320;15.998;2024-03-02T08:59:39;12.18;;;4.13;;
69937;SDS011;57248;47.320;15.998;2024-03-02T09:02:11;8.93;;;3.40;;
69937;SDS011;57248;47.320;15.998;2024-03-02T09:04:43;15.13;;;4.07;;
69937;SDS011;57248;47.320;15.998;2024-03-02T09:07:08;11.00;;;4.10;;
69937;SDS011;57248;47.320;15.998;2024-03-02T09:09:41;6.03;;;2.53;;
69937;SDS011;57248;47.320;15.998;2024-03-02T09:12:13;10.57;;;4.07;;
69937;SDS011;57248;47.320;15.998;2024-03-02T09:14:52;7.85;;;3.25;;
69937;SDS011;57248;47.320;15.998;2024-03-02T09:17:24;8.60;;;3.15;;
69937;SDS011;57248;47.320;15.998;2024-03-02T09:19:56;9.27;;;3.58;;
69937;SDS011;57248;47.320;15.998;2024-03-02T09:22:28;7.53;;;2.97;;
69937;SDS011;57248;47.320;15.998;2024-03-02T09:25:00;7.43;;;2.95;;
69937;SDS011;57248;47.320;15.998;2024-03-02T09:27:37;7.45;;;3.15;;
69937;SDS011;57248;47.320;15.998;2024-03-02T09:30:10;9.68;;;3.80;;
69937;SDS011;57248;47.320;15.998;2024-03-02T09:32:45;8.95;;;3.67;;
69937;SDS011;57248;47.320;15.998;2024-03-02T09:35:17;10.33;;;4.07;;
69937;SDS011;57248;47.320;15.998;2024-03-02T09:37:43;9.02;;;3.90;;
69937;SDS011;57248;47.320;15.998;2024-03-02T09:40:15;9.02;;;3.78;;
69937;SDS011;57248;47.320;15.998;2024-03-02T09:42:48;9.13;;;4.70;;
69937;SDS011;57248;47.320;15.998;2024-03-02T09:45:24;8.53;;;3.77;;
69937;SDS011;57248;47.320;15.998;2024-03-02T09:47:58;8.60;;;3.78;;
69937;SDS011;57248;47.320;15.998;2024-03-02T09:50:32;8.50;;;2.97;;
69937;SDS011;57248;47.320;15.998;2024-03-02T09:53:04;8.77;;;3.58;;
69937;SDS011;57248;47.320;15.998;2024-03-02T09:55:37;10.77;;;3.53;;
69937;SDS011;57248;47.320;15.998;2024-03-02T09:58:10;12.03;;;4.37;;
69937;SDS011;57248;47.320;15.998;2024-03-02T10:00:42;10.07;;;4.07;;
69937;SDS011;57248;47.320;15.998;2024-03-02T10:03:14;10.55;;;4.35;;
69937;SDS011;57248;47.320;15.998;2024-03-02T10:05:46;14.82;;;4.60;;
69937;SDS011;57248;47.320;15.998;2024-03-02T10:08:18;13.18;;;4.75;;
69937;SDS011;57248;47.320;15.998;2024-03-02T10:10:50;9.33;;;4.03;;
69937;SDS011;57248;47.320;15.998;2024-03-02T10:13:23;11.30;;;4.60;;
69937;SDS011;57248;47.320;15.998;2024-03-02T10:16:13;12.18;;;4.65;;
69937;SDS011;57248;47.320;15.998;2024-03-02T10:18:45;8.30;;;4.00;;
69937;SDS011;57248;47.320;15.998;2024-03-02T10:21:13;10.00;;;3.93;;
69937;SDS011;57248;47.320;15.998;2024-03-02T10:23:48;11.43;;;4.90;;
69937;SDS011;57248;47.320;15.998;2024-03-02T10:26:16;10.60;;;4.13;;
69937;SDS011;57248;47.320;15.998;2024-03-02T10:28:50;11.88;;;4.93;;
69937;SDS011;57248;47.320;15.998;2024-03-02T10:31:30;11.77;;;4.70;;
69937;SDS011;57248;47.320;15.998;2024-03-02T10:34:03;11.43;;;4.70;;
69937;SDS011;57248;47.320;15.998;2024-03-02T10:36:37;9.65;;;4.45;;
69937;SDS011;57248;47.320;15.998;2024-03-02T10:39:11;13.07;;;5.03;;
69937;SDS011;57248;47.320;15.998;2024-03-02T10:41:47;14.70;;;5.60;;
69937;SDS011;57248;47.320;15.998;2024-03-02T10:44:23;14.25;;;4.95;;
69937;SDS011;57248;47.320;15.998;2024-03-02T10:47:05;13.05;;;5.07;;
69937;SDS011;57248;47.320;15.998;2024-03-02T10:49:37;13.68;;;4.75;;
69937;SDS011;57248;47.320;15.998;2024-03-02T10:52:10;13.30;;;5.27;;
69937;SDS011;57248;47.320;15.998;2024-03-02T10:54:42;10.75;;;5.30;;
69937;SDS011;57248;47.320;15.998;2024-03-02T10:57:08;9.88;;;4.60;;
69937;SDS011;57248;47.320;15.998;2024-03-02T10:59:47;11.27;;;4.85;;
69937;SDS011;57248;47.320;15.998;2024-03-02T11:02:28;13.45;;;5.35;;
69937;SDS011;57248;47.320;15.998;2024-03-02T11:05:03;12.47;;;4.57;;
69937;SDS011;57248;47.320;15.998;2024-03-02T11:07:39;11.70;;;5.32;;
69937;SDS011;57248;47.320;15.998;2024-03-02T11:10:12;12.15;;;5.15;;
69937;SDS011;57248;47.320;15.998;2024-03-02T11:12:59;14.52;;;5.75;;
69937;SDS011;57248;47.320;15.998;2024-03-02T11:15:36;9.68;;;4.60;;
69937;SDS011;57248;47.320;15.998;2024-03-02T11:18:09;12.33;;;5.40;;
69937;SDS011;57248;47.320;15.998;2024-03-02T11:20:43;11.98;;;4.50;;
69937;SDS011;57248;47.320;15.998;2024-03-02T11:23:16;10.10;;;5.50;;
69937;SDS011;57248;47.320;15.998;2024-03-02T11:25:48;14.60;;;5.30;;
69937;SDS011;57248;47.320;15.998;2024-03-02T11:28:14;12.77;;;5.50;;
69937;SDS011;57248;47.320;15.998;2024-03-02T11:30:48;11.73;;;5.70;;
69937;SDS011;57248;47.320;15.998;2024-03-02T11:33:23;12.15;;;5.13;;
69937;SDS011;57248;47.320;15.998;2024-03-02T11:35:59;12.00;;;4.78;;
69937;SDS011;57248;47.320;15.998;2024-03-02T11:38:32;11.90;;;4.77;;
69937;SDS011;57248;47.320;15.998;2024-03-02T11:41:06;11.80;;;4.55;;
69937;SDS011;57248;47.320;15.998;2024-03-02T11:43:40;13.73;;;4.93;;
69937;SDS011;57248;47.320;15.998;2024-03-02T11:46:16;11.50;;;4.43;;
69937;SDS011;57248;47.320;15.998;2024-03-02T11:48:49;11.93;;;4.88;;
69937;SDS011;57248;47.320;15.998;2024-03-02T11:51:21;10.43;;;4.77;;
69937;SDS011;57248;47.320;15.998;2024-03-02T11:53:55;9.82;;;4.18;;
69937;SDS011;57248;47.320;15.998;2024-03-02T11:56:28;13.48;;;4.97;;
69937;SDS011;57248;47.320;15.998;2024-03-02T11:59:02;11.15;;;4.38;;
69937;SDS011;57248;47.320;15.998;2024-03-02T12:01:35;9.40;;;4.15;;
69937;SDS011;57248;47.320;15.998;2024-03-02T12:04:08;10.43;;;4.47;;
69937;SDS011;57248;47.320;15.998;2024-03-02T12:06:43;13.55;;;5.05;;
69937;SDS011;57248;47.320;15.998;2024-03-02T12:09:15;13.07;;;4.88;;
69937;SDS011;57248;47.320;15.998;2024-03-02T12:11:56;10.30;;;3.58;;
69937;SDS011;57248;47.320;15.998;2024-03-02T12:14:37;11.00;;;3.95;;
69937;SDS011;57248;47.320;15.998;2024-03-02T12:17:16;13.33;;;5.03;;
69937;SDS011;57248;47.320;15.998;2024-03-02T12:19:50;10.32;;;4.25;;
69937;SDS011;57248;47.320;15.998;2024-03-02T12:22:23;10.25;;;4.43;;
69937;SDS011;57248;47.320;15.998;2024-03-02T12:24:55;10.30;;;4.07;;
69937;SDS011;57248;47.320;15.998;2024-03-02T12:27:29;8.27;;;3.30;;
69937;SDS011;57248;47.320;15.998;2024-03-02T12:30:01;7.63;;;3.40;;
69937;SDS011;57248;47.320;15.998;2024-03-02T12:32:33;9.73;;;3.63;;
69937;SDS011;57248;47.320;15.998;2024-03-02T12:35:10;7.82;;;3.35;;
69937;SDS011;57248;47.320;15.998;2024-03-02T12:37:49;30.58;;;8.57;;
69937;SDS011;57248;47.320;15.998;2024-03-02T12:40:23;11.18;;;3.75;;
69937;SDS011;57248;47.320;15.998;2024-03-02T12:42:56;8.27;;;3.30;;
69937;SDS011;57248;47.320;15.998;2024-03-02T12:45:29;9.65;;;3.22;;
69937;SDS011;57248;47.320;15.998;2024-03-02T12:48:01;10.30;;;3.78;;
69937;SDS011;57248;47.320;15.998;2024-03-02T12:50:35;8.88;;;3.20;;
69937;SDS011;57248;47.320;15.998;2024-03-02T12:53:07;7.82;;;2.78;;
69937;SDS011;57248;47.320;15.998;2024-03-02T12:55:45;8.43;;;3.20;;
69937;SDS011;57248;47.320;15.998;2024-03-02T12:58:18;8.38;;;3.22;;
69937;SDS011;57248;47.320;15.998;2024-03-02T13:01:07;9.45;;;3.22;;
69937;SDS011;57248;47.320;15.998;2024-03-02T13:03:43;9.02;;;3.30;;
69937;SDS011;57248;47.320;15.998;2024-03-02T13:06:16;10.20;;;3.78;;
69937;SDS011;57248;47.320;15.998;2024-03-02T13:08:49;9.53;;;3.57;;
69937;SDS011;57248;47.320;15.998;2024-03-02T13:11:22;8.20;;;3.33;;
69937;SDS011;57248;47.320;15.998;2024-03-02T13:14:04;8.00;;;3.55;;
69937;SDS011;57248;47.320;15.998;2024-03-02T13:16:40;7.82;;;3.30;;
69937;SDS011;57248;47.320;15.998;2024-03-02T13:19:19;9.18;;;4.00;;
69937;SDS011;57248;47.320;15.998;2024-03-02T13:21:51;7.20;;;3.13;;
69937;SDS011;57248;47.320;15.998;2024-03-02T13:24:24;7.63;;;3.20;;
69937;SDS011;57248;47.320;15.998;2024-03-02T13:27:00;7.25;;;2.78;;
69937;SDS011;57248;47.320;15.998;2024-03-02T13:29:25;7.20;;;3.43;;
69937;SDS011;57248;47.320;15.998;2024-03-02T13:32:00;7.55;;;3.30;;
69937;SDS011;57248;47.320;15.998;2024-03-02T13:34:32;10.38;;;3.78;;
69937;SDS011;57248;47.320;15.998;2024-03-02T13:37:04;12.95;;;5.30;;
69937;SDS011;57248;47.320;15.998;2024-03-02T13:39:44;8.83;;;3.50;;
69937;SDS011;57248;47.320;15.998;2024-03-02T13:42:16;9.23;;;3.45;;
69937;SDS011;57248;47.320;15.998;2024-03-02T13:44:52;10.57;;;3.72;;
69937;SDS011;57248;47.320;15.998;2024-03-02T13:47:24;8.38;;;3.08;;
69937;SDS011;57248;47.320;15.998;2024-03-02T13:49:56;12.23;;;4.53;;
69937;SDS011;57248;47.320;15.998;2024-03-02T13:52:21;9.30;;;3.10;;
69937;SDS011;57248;47.320;15.998;2024-03-02T13:54:54;11.88;;;4.43;;
69937;SDS011;57248;47.320;15.998;2024-03-02T13:57:26;8.35;;;3.55;;
69937;SDS011;57248;47.320;15.998;2024-03-02T13:59:59;7.30;;;3.07;;
69937;SDS011;57248;47.320;15.998;2024-03-02T14:02:37;10.90;;;3.92;;
69937;SDS011;57248;47.320;15.998;2024-03-02T14:05:11;7.35;;;3.17;;
69937;SDS011;57248;47.320;15.998;2024-03-02T14:07:43;7.95;;;3.22;;
69937;SDS011;57248;47.320;15.998;2024-03-02T14:10:17;5.97;;;2.05;;
69937;SDS011;57248;47.320;15.998;2024-03-02T14:12:53;8.17;;;2.77;;
69937;SDS011;57248;47.320;15.998;2024-03-02T14:15:26;9.02;;;2.88;;
69937;SDS011;57248;47.320;15.998;2024-03-02T14:18:08;6.22;;;2.30;;
69937;SDS011;57248;47.320;15.998;2024-03-02T14:20:42;4.65;;;1.70;;
69937;SDS011;57248;47.320;15.998;2024-03-02T14:23:14;6.43;;;2.47;;
69937;SDS011;57248;47.320;15.998;2024-03-02T14:25:47;4.87;;;1.70;;
69937;SDS011;57248;47.320;15.998;2024-03-02T14:28:19;7.20;;;2.80;;
69937;SDS011;57248;47.320;15.998;2024-03-02T14:30:51;7.53;;;2.25;;
69937;SDS011;57248;47.320;15.998;2024-03-02T14:33:23;6.97;;;2.42;;
69937;SDS011;57248;47.320;15.998;2024-03-02T14:35:56;3.80;;;1.13;;
69937;SDS011;57248;47.320;15.998;2024-03-02T14:38:29;5.00;;;1.47;;
69937;SDS011;57248;47.320;15.998;2024-03-02T14:41:02;6.88;;;1.60;;
69937;SDS011;57248;47.320;15.998;2024-03-02T14:43:35;6.78;;;1.70;;
69937;SDS011;57248;47.320;15.998;2024-03-02T14:46:08;9.77;;;2.80;;
69937;SDS011;57248;47.320;15.998;2024-03-02T14:48:35;5.50;;;1.40;;
69937;SDS011;57248;47.320;15.998;2024-03-02T14:51:08;6.18;;;2.13;;
69937;SDS011;57248;47.320;15.998;2024-03-02T14:53:42;5.80;;;1.73;;
69937;SDS011;57248;47.320;15.998;2024-03-02T14:56:15;7.45;;;1.75;;
69937;SDS011;57248;47.320;15.998;2024-03-02T14:58:47;7.90;;;1.60;;
69937;SDS011;57248;47.320;15.998;2024-03-02T15:01:24;4.40;;;1.30;;